Station DPXA2 - Dutch Harbor Pilot Station, AK Image indicating link to RSS feed of recent meteorological observations for station DPXA2


Conditions at DPXA2 as of
(5:32 am AKDT)
1332 GMT on 05/02/2026:
     

Click on the graph icon in the table below to see a time series plot of the last five days of that observation.

5-day plot - Wind Direction Wind Direction (WDIR):SSE ( 150 deg true )
5-day plot - Wind Speed Wind Speed (WSPD): 5.1 kts
5-day plot - Wind Gust Wind Gust (GST): 8.9 kts
5-day plot - Atmospheric Pressure Atmospheric Pressure (PRES):29.63 in
5-day plot - Air Temperature Air Temperature (ATMP): 37.4 °F
5-day plot - Dew Point Dew Point (DEWP): 32.2 °F
5-day plot - Wind Chill Wind Chill (CHILL): 32.7 °F
5-day plot - Wind Speed at 10 Meters Wind Speed at 10 meters (WSPD10M): 5.8 kts
5-day plot - Wind Speed at 20 Meters Wind Speed at 20 meters (WSPD20M): 5.8 kts
5-day plot -  Wind Speed, Wind Gust and Atmospheric Pressure Combined plot of Wind Speed, Gust, and Air Pressure
Previous observations
TIME
(AKDT)
5-day plot - Wind Direction
WDIR
 
5-day plot - Wind Speed
WSPD
kts
5-day plot - Wind Gust
GST
kts
5-day plot - Wave Height
WVHT
ft
5-day plot - Dominant Wave Period
DPD
sec
5-day plot - Average Wave Period
APD
sec
5-day plot - Mean Wave Direction
MWD
 
5-day plot - Atmospheric Pressure
PRES
in
5-day plot - Pressure Tendency
PTDY
in
5-day plot - Air Temperature
ATMP
°F
5-day plot - Water Temperature
WTMP
°F
5-day plot - Dew Point
DEWP
°F
5-day plot - Salinity
SAL
psu
5-day plot - Visibility
VIS
nmi
5-day plot - Tide (above MLLW)
TIDE
ft
2026-05-02 05:22 amSSE 4.1 6.0----29.63- 37.2- 32.0---
2026-05-02 05:12 amSSE 2.9 5.1----29.63- 37.2- 31.6---
2026-05-02 05:02 amSSE 4.1 7.0----29.63- 37.6- 31.6---
2026-05-02 04:52 am SE 5.1 7.0----29.62- 37.8- 31.8---
2026-05-02 04:42 am SE 5.1 7.0----29.62- 37.8- 31.8---
2026-05-02 04:32 am SE 5.1 7.0----29.61- 37.6- 31.6---
2026-05-02 04:22 am SE 5.1 7.0----29.61- 37.4- 31.5---
2026-05-02 04:12 am SE 5.1 7.0----29.60- 37.6- 31.6---
2026-05-02 04:02 am SE 5.1 8.0----29.60- 37.6- 31.3---
2026-05-02 03:52 amESE 7.0 8.9----29.60- 37.8- 31.8---
2026-05-02 03:42 am SE 6.0 8.9----29.59- 37.8- 31.8---
2026-05-02 03:32 am SE 5.1 8.9----29.59- 37.8- 31.5---
2026-05-02 03:22 amSSE 5.1 8.0----29.59- 38.5- 31.8---
2026-05-02 03:12 am S 5.1 9.9----29.58- 38.7- 32.0---
2026-05-02 03:02 am S 7.0 11.1----29.58- 39.4- 32.2---
2026-05-02 02:52 am S 4.1 8.9----29.58- 38.8- 32.2---
2026-05-02 02:42 am S 6.0 12.0----29.57- 39.0- 32.7---
2026-05-02 02:32 am S 6.0 9.9----29.57- 39.4- 32.4---
2026-05-02 02:22 am S 7.0 13.0----29.57- 39.6- 32.4---
2026-05-02 02:12 am S 8.0 14.0----29.57- 39.9- 32.4---
2026-05-02 02:02 am S 6.0 15.0----29.56- 39.9- 32.4---
2026-05-02 01:52 am S 6.0 12.0----29.56- 39.9- 32.7---
2026-05-02 01:42 amSSE 5.1 8.9----29.55- 39.7- 33.1---
2026-05-02 01:32 am S 5.1 8.9----29.55- 39.9- 32.9---
2026-05-02 01:22 am S 6.0 9.9----29.54- 40.3- 32.9---
2026-05-02 01:12 am S 6.0 9.9----29.54- 40.5- 32.9---
2026-05-02 01:02 am S 6.0 11.1----29.53- 40.5- 32.9---
2026-05-02 12:52 am S 5.1 9.9----29.53- 40.3- 32.7---
2026-05-02 12:42 am S 5.1 8.9----29.52- 40.1- 32.7---
2026-05-02 12:32 am S 5.1 8.9----29.52- 40.3- 32.9---
2026-05-02 12:22 am S 5.1 11.1----29.52- 40.6- 32.7---
2026-05-02 12:12 am S 5.1 9.9----29.51- 40.6- 32.4---
2026-05-02 12:02 am S 6.0 9.9----29.50- 40.6- 32.7---
2026-05-01 11:52 pm S 5.1 9.9----29.50- 40.8- 32.5---
2026-05-01 11:42 pm S 6.0 8.9----29.49- 41.4- 32.4---
2026-05-01 11:32 pm S 7.0 12.0----29.48- 41.5- 32.5---
2026-05-01 11:22 pm S 8.0 15.0----29.48- 41.5- 32.9---
2026-05-01 11:12 pm S 8.9 14.0----29.47- 41.7- 32.4---
2026-05-01 11:02 pm S 8.0 14.0----29.46- 41.7- 32.4---
2026-05-01 10:52 pm S 8.9 15.0----29.46- 41.9- 32.5---
2026-05-01 10:42 pm S 8.0 14.0----29.45- 42.1- 32.7---
2026-05-01 10:32 pm S 8.9 17.1----29.44- 42.1- 32.4---
2026-05-01 10:22 pm S 8.9 17.1----29.44- 42.1- 32.7---
2026-05-01 10:12 pm S 8.9 15.9----29.43- 42.4- 32.2---
2026-05-01 10:02 pm S 8.0 15.9----29.42- 42.4- 32.5---
2026-05-01 09:52 pm S 8.0 13.0----29.42- 42.6- 32.7---
2026-05-01 09:42 pmSSW 7.0 12.0----29.41- 42.8- 32.9---
2026-05-01 09:32 pmSSW 7.0 12.0----29.41- 42.8- 32.9---
2026-05-01 09:22 pmSSW 7.0 13.0----29.40- 42.8- 32.9---
2026-05-01 09:12 pmSSW 8.0 17.1----29.40- 42.8- 32.9---
2026-05-01 09:02 pm S 8.0 17.1----29.39- 43.0- 33.1---
2026-05-01 08:52 pmSSW 7.0 13.0----29.39- 43.0- 32.7---
2026-05-01 08:42 pm S 9.9 19.0----29.38- 43.0- 33.1---
2026-05-01 08:32 pm S 8.9 18.1----29.38- 43.2- 32.9---
2026-05-01 08:22 pm S 8.9 15.9----29.37- 43.2- 32.9---
2026-05-01 08:12 pmSSW 9.9 20.0----29.37- 43.3- 33.1---
2026-05-01 08:02 pmSSW 8.9 15.9----29.36- 43.3- 32.7---
2026-05-01 07:52 pmSSW 9.9 18.1----29.36- 43.3- 33.1---
2026-05-01 07:42 pm S 8.9 19.0----29.35- 43.5- 32.9---
2026-05-01 07:32 pm S 9.9 19.0----29.35- 43.5- 32.5---
2026-05-01 07:22 pm S 9.9 21.0----29.35- 43.9- 32.9---
2026-05-01 07:12 pmSSW 8.9 17.1----29.34- 44.1- 33.4---
2026-05-01 07:02 pmSSW 9.9 20.0----29.34- 43.7- 32.7---
2026-05-01 06:52 pm S 11.1 19.0----29.33- 44.1- 33.4---
2026-05-01 06:42 pmSSW 9.9 20.0----29.33- 44.2- 33.6---
2026-05-01 06:32 pmSSW 8.9 19.0----29.32- 44.4- 34.2---
2026-05-01 06:22 pmSSW 9.9 17.1----29.32- 44.2- 33.6---
2026-05-01 06:12 pmSSW 9.9 20.0----29.31- 44.2- 34.0---
2026-05-01 06:02 pmSSW 9.9 17.1----29.31- 44.4- 34.9---
2026-05-01 05:52 pmSSW 8.9 17.1----29.31- 44.1- 34.5---
2026-05-01 05:42 pm S 9.9 18.1----29.31- 44.2- 35.1---
2026-05-01 05:32 pmSSW 8.9 15.0----29.31- 44.1- 34.9---
2026-05-01 05:22 pm S 8.9 19.0----29.30- 44.2- 35.1---
2026-05-01 05:12 pmSSW 8.0 15.0----29.30- 44.2- 35.1---
2026-05-01 05:02 pmSSW 8.0 15.9----29.30- 44.1- 35.2---
2026-05-01 04:52 pm SW 8.0 14.0----29.29- 43.0- 36.5---
2026-05-01 04:42 pm SW 8.9 15.0----29.29- 42.1- 36.3---
2026-05-01 04:32 pmSSW 8.9 15.9----29.29- 42.8- 37.0---
2026-05-01 04:22 pm S 11.1 20.0----29.28- 42.1- 36.7---
2026-05-01 04:12 pm S 11.1 18.1----29.28- 41.5- 36.1---
2026-05-01 04:02 pm S 14.0 22.0----29.27- 41.7- 36.0---
2026-05-01 03:52 pm S 13.0 22.0----29.26- 42.3- 36.1---
2026-05-01 03:42 pm S 12.0 22.0----29.27- 42.1- 36.7---
2026-05-01 03:32 pm S 11.1 20.0----29.26- 42.3- 36.5---
2026-05-01 03:22 pm S 13.0 22.0----29.26- 41.7- 36.0---
2026-05-01 03:12 pm S 13.0 22.0----29.25- 42.8- 37.0---
2026-05-01 03:02 pm S 15.0 24.1----29.25- 42.4- 36.3---
2026-05-01 02:52 pm S 14.0 22.0----29.24- 42.4- 36.3---
2026-05-01 02:42 pm S 13.0 22.0----29.23- 42.3- 36.1---
2026-05-01 02:32 pm S 11.1 20.0----29.23- 42.8- 36.5---
2026-05-01 02:22 pm S 11.1 20.0----29.22- 43.0- 36.3---
2026-05-01 02:12 pm S 11.1 19.0----29.22- 42.6- 36.3---
2026-05-01 02:02 pm S 11.1 21.0----29.21- 43.2- 36.1---
2026-05-01 01:52 pmSSW 8.9 15.9----29.21- 44.4- 36.7---
2026-05-01 01:42 pm S 9.9 22.0----29.21- 45.0- 36.9---
2026-05-01 01:32 pmSSW 8.9 18.1----29.20- 45.0- 36.5---
2026-05-01 01:22 pm S 9.9 17.1----29.20- 43.7- 36.0---
2026-05-01 01:12 pm S 9.9 19.0----29.19- 42.6- 36.0---
2026-05-01 01:02 pmSSW 8.9 15.9----29.19- 42.6- 36.0---
2026-05-01 12:52 pmSSW 8.0 17.1----29.18- 42.3- 35.2---
2026-05-01 12:42 pm S 9.9 19.0----29.17- 42.1- 35.4---
2026-05-01 12:32 pm S 8.9 17.1----29.17- 42.1- 35.4---
2026-05-01 12:22 pmSSW 8.0 13.0----29.16- 42.3- 35.6---
2026-05-01 12:12 pm SW 9.9 18.1----29.16- 41.9- 35.2---
2026-05-01 12:02 pmSSW 8.0 15.0----29.15- 41.7- 36.3---
2026-05-01 11:52 am SW 8.0 15.0----29.15- 41.5- 36.5---
2026-05-01 11:42 amSSW 8.0 15.9----29.15- 41.4- 36.3---
2026-05-01 11:32 am S 12.0 21.0----29.14- 41.0- 35.6---
2026-05-01 11:22 am S 13.0 22.0----29.14- 40.8- 35.8---
2026-05-01 11:12 am S 9.9 20.0----29.13- 41.2- 35.4---
2026-05-01 11:02 amSSW 8.9 18.1----29.13- 41.0- 35.2---
2026-05-01 10:52 amSSW 8.9 18.1----29.12- 40.8- 35.8---
2026-05-01 10:42 am S 11.1 21.0----29.12- 40.5- 35.8---
2026-05-01 10:32 am S 11.1 21.0----29.11- 40.5- 35.8---
2026-05-01 10:22 am S 9.9 18.1----29.10- 40.5- 35.4---
2026-05-01 10:12 am S 9.9 21.0----29.10- 40.6- 35.6---
2026-05-01 10:02 am S 9.9 20.0----29.09- 40.1- 35.6---
2026-05-01 09:52 am S 9.9 18.1----29.09- 39.9- 35.8---
2026-05-01 09:42 am S 11.1 21.0----29.08- 39.6- 35.4---
2026-05-01 09:32 am S 8.9 15.9----29.08- 39.7- 35.2---
2026-05-01 09:22 am S 9.9 21.0----29.08- 39.9- 35.2---
2026-05-01 09:12 am S 12.0 22.9----29.07- 39.7- 35.2---
2026-05-01 09:02 am S 9.9 19.0----29.06- 39.6- 35.8---
2026-05-01 08:52 am S 9.9 18.1----29.06- 39.2- 35.6---
2026-05-01 08:42 am S 8.9 15.9----29.05- 39.0- 35.4---
2026-05-01 08:32 am S 8.9 15.0----29.05- 39.2- 35.4---
2026-05-01 08:22 am S 8.0 15.0----29.05- 39.2- 35.1---
2026-05-01 08:12 am S 8.0 14.0----29.05- 39.2- 35.4---
2026-05-01 08:02 am S 8.0 14.0----29.05- 39.4- 35.6---
2026-05-01 07:52 am S 8.0 17.1----29.04- 39.2- 35.4---
2026-05-01 07:42 am S 8.0 15.0----29.04- 39.2- 35.4---
2026-05-01 07:32 am S 7.0 12.0----29.04- 39.2- 35.4---
2026-05-01 07:22 am S 8.0 14.0----29.03- 39.4- 35.6---
2026-05-01 07:12 am S 7.0 13.0----29.03- 39.4- 35.6---
2026-05-01 07:02 am S 8.0 15.0----29.03- 39.6- 35.4---
2026-05-01 06:52 am S 8.0 18.1----29.03- 39.7- 35.6---
2026-05-01 06:42 am S 6.0 12.0----29.03- 39.7- 36.0---
2026-05-01 06:32 am S 6.0 12.0----29.03- 39.9- 35.8---
2026-05-01 06:22 am S 7.0 13.0----29.03- 39.9- 35.8---
2026-05-01 06:12 am S 6.0 11.1----29.02- 39.7- 36.0---
2026-05-01 06:02 am S 7.0 13.0----29.02- 39.7- 36.0---
2026-05-01 05:52 am S 6.0 11.1----29.02- 39.6- 36.0---
2026-05-01 05:42 am S 7.0 13.0----29.02- 39.6- 36.0---
2026-05-01 05:32 am S 7.0 12.0----29.02- 39.4- 35.8---
2026-05-01 05:22 am S 7.0 12.0----29.01- 39.6- 36.0---
2026-05-01 05:12 am S 5.1 11.1----29.01- 39.4- 35.8---
2026-05-01 05:02 amSSE 4.1 8.9----29.01- 39.6- 36.3---
2026-05-01 04:52 am S 5.1 8.9----29.01- 39.6- 36.0---